Time;durP1;ratioP1;P1;durP2;ratioP2;P2;SDS_P1;SDS_P2;PMS_P1;PMS_P2;Temp;Humidity;BMP_temperature;BMP_pressure;BME280_temperature;BME280_humidity;BME280_pressure;Samples;Min_cycle;Max_cycle;Signal;HPM_P1;HPM_P2
2024/02/17 00:02:38;;;;;;;26.40;17.00;;;;;;;8.05;78.54;100351.11;130721;1257;109317;-80
2024/02/17 00:05:44;;;;;;;22.80;13.90;;;;;;;8.02;78.77;100350.18;130634;1258;108690;-83
2024/02/17 00:08:49;;;;;;;20.90;12.60;;;;;;;7.99;78.68;100351.45;130635;1260;108698;-80
2024/02/17 00:11:55;;;;;;;25.00;15.10;;;;;;;8.01;78.83;100349.71;130591;1254;108172;-81
2024/02/17 00:15:02;;;;;;;22.40;14.90;;;;;;;8.04;78.88;100349.96;130630;1254;108754;-79
2024/02/17 00:18:08;;;;;;;23.70;15.50;;;;;;;8.10;78.89;100351.40;130630;1259;107755;-80
2024/02/17 00:21:13;;;;;;;22.00;14.90;;;;;;;8.13;78.83;100347.42;130555;1260;107659;-79
2024/02/17 00:24:19;;;;;;;24.70;15.30;;;;;;;8.15;78.80;100347.77;130663;1261;107804;-80
2024/02/17 00:27:25;;;;;;;21.30;14.10;;;;;;;8.16;78.91;100350.67;130670;1256;108471;-79
2024/02/17 00:30:30;;;;;;;23.70;14.40;;;;;;;8.17;78.98;100351.65;130669;1260;108991;-80
2024/02/17 00:33:37;;;;;;;21.30;14.40;;;;;;;8.17;79.11;100355.02;130727;1254;108471;-80
2024/02/17 00:36:43;;;;;;;20.30;13.10;;;;;;;8.17;79.08;100353.91;130629;1257;106754;-82
2024/02/17 00:39:48;;;;;;;23.10;12.40;;;;;;;8.18;79.14;100350.65;130582;1258;107658;-79
2024/02/17 00:42:54;;;;;;;20.10;12.60;;;;;;;8.25;79.22;100351.33;130600;1258;107199;-80
2024/02/17 00:45:59;;;;;;;20.20;13.50;;;;;;;8.33;79.28;100349.17;130651;1258;107359;-78
2024/02/17 00:49:05;;;;;;;21.10;13.60;;;;;;;8.41;79.25;100353.42;130843;1259;106506;-80
2024/02/17 00:52:11;;;;;;;19.50;13.20;;;;;;;8.48;79.31;100347.92;130776;1258;108564;-79
2024/02/17 00:55:16;;;;;;;20.50;13.90;;;;;;;8.54;79.30;100353.20;130592;1256;107002;-79
2024/02/17 00:58:22;;;;;;;22.20;13.90;;;;;;;8.57;79.26;100350.59;130621;1254;107587;-79
2024/02/17 01:01:28;;;;;;;19.70;13.30;;;;;;;8.59;79.22;100348.70;130585;1258;106986;-80
2024/02/17 01:04:34;;;;;;;21.60;13.20;;;;;;;8.60;79.29;100350.35;130788;1258;106840;-80
2024/02/17 01:07:40;;;;;;;20.90;12.20;;;;;;;8.61;79.36;100350.14;130947;1254;108590;-78
2024/02/17 01:10:46;;;;;;;18.10;11.20;;;;;;;8.60;79.32;100344.31;130877;1258;108747;-78
2024/02/17 01:13:52;;;;;;;18.80;12.40;;;;;;;8.61;79.48;100345.45;130904;1253;108699;-79
2024/02/17 01:16:57;;;;;;;19.60;12.70;;;;;;;8.64;79.54;100346.63;130857;1256;107172;-80
2024/02/17 01:20:04;;;;;;;18.90;12.30;;;;;;;8.67;79.60;100343.05;130718;1259;107488;-81
2024/02/17 01:23:09;;;;;;;19.80;13.20;;;;;;;8.70;79.41;100343.13;130924;1252;107199;-80
2024/02/17 01:26:15;;;;;;;19.20;13.10;;;;;;;8.72;79.48;100347.54;130817;1257;133928;-80
2024/02/17 01:29:21;;;;;;;20.60;13.10;;;;;;;8.71;79.43;100348.10;130903;1254;107502;-79
2024/02/17 01:32:26;;;;;;;21.10;13.10;;;;;;;8.72;79.47;100345.96;130921;1253;107793;-80
2024/02/17 01:35:32;;;;;;;18.50;13.00;;;;;;;8.69;79.60;100347.11;130939;1254;107685;-81
2024/02/17 01:38:37;;;;;;;17.80;11.20;;;;;;;8.67;79.70;100343.95;131005;1254;106397;-78
2024/02/17 01:41:43;;;;;;;16.30;10.60;;;;;;;8.67;79.62;100345.50;130918;1257;108678;-80
2024/02/17 01:44:48;;;;;;;18.80;11.90;;;;;;;8.70;79.76;100348.02;130810;1254;108449;-82
2024/02/17 01:47:55;;;;;;;20.30;12.90;;;;;;;8.77;79.69;100349.05;130787;1258;108661;-81
2024/02/17 01:51:03;;;;;;;17.90;12.90;;;;;;;8.81;79.93;100346.15;130653;1258;106722;-81
2024/02/17 01:54:10;;;;;;;22.10;13.70;;;;;;;8.86;80.19;100341.48;130670;1259;108718;-82
2024/02/17 01:57:17;;;;;;;20.00;13.30;;;;;;;8.87;80.42;100343.33;130819;1259;108784;-80
2024/02/17 02:00:23;;;;;;;18.70;13.10;;;;;;;8.88;80.51;100343.25;130720;1258;108644;-81
2024/02/17 02:03:29;;;;;;;18.40;12.10;;;;;;;8.87;80.79;100338.21;130807;1259;107213;-79
2024/02/17 02:06:34;;;;;;;17.10;10.90;;;;;;;8.85;81.17;100335.86;130884;1252;108668;-81
2024/02/17 02:09:40;;;;;;;18.70;11.80;;;;;;;8.85;81.09;100332.84;130928;1257;107685;-78
2024/02/17 02:12:46;;;;;;;18.30;11.80;;;;;;;8.85;81.29;100331.77;130891;1257;107402;-80
2024/02/17 02:15:52;;;;;;;18.70;12.20;;;;;;;8.88;81.34;100329.95;130869;1256;107439;-78
2024/02/17 02:18:58;;;;;;;17.60;12.00;;;;;;;8.89;81.41;100329.82;130889;1267;106373;-80
2024/02/17 02:22:04;;;;;;;21.30;12.50;;;;;;;8.90;81.28;100324.43;130931;1252;108550;-79
2024/02/17 02:25:23;;;;;;;16.20;11.80;;;;;;;8.88;81.40;100326.54;131253;1256;106429;-79
2024/02/17 02:28:30;;;;;;;18.00;12.10;;;;;;;8.85;81.25;100321.13;130991;1253;106951;-80
2024/02/17 02:31:36;;;;;;;16.40;11.20;;;;;;;8.81;81.31;100326.98;130893;1256;106590;-78
2024/02/17 02:34:42;;;;;;;16.80;10.20;;;;;;;8.78;81.50;100325.48;130915;1257;108643;-81
2024/02/17 02:37:47;;;;;;;18.20;11.20;;;;;;;8.78;81.57;100324.77;130884;1256;107546;-80
2024/02/17 02:40:53;;;;;;;17.00;11.00;;;;;;;8.81;81.48;100329.34;130919;1256;107575;-80
2024/02/17 02:43:58;;;;;;;17.70;11.50;;;;;;;8.85;81.44;100324.52;130848;1253;107392;-80
2024/02/17 02:47:04;;;;;;;16.30;11.80;;;;;;;8.87;81.60;100320.09;130878;1254;106486;-79
2024/02/17 02:50:11;;;;;;;16.70;10.90;;;;;;;8.89;81.40;100323.29;130903;1253;108136;-79
2024/02/17 02:53:17;;;;;;;16.60;10.80;;;;;;;8.91;81.56;100319.34;130948;1253;108663;-80
2024/02/17 02:56:23;;;;;;;17.00;11.20;;;;;;;8.92;81.66;100320.54;130928;1261;106552;-81
2024/02/17 02:59:29;;;;;;;14.20;9.80;;;;;;;8.92;81.67;100319.98;130874;1258;106634;-81
2024/02/17 03:02:34;;;;;;;13.10;9.00;;;;;;;8.93;81.90;100319.03;130873;1258;107585;-79
2024/02/17 03:05:40;;;;;;;16.60;10.20;;;;;;;8.94;81.81;100325.99;130851;1253;107502;-80
2024/02/17 03:08:46;;;;;;;13.60;10.40;;;;;;;8.98;81.92;100326.67;130885;1253;108735;-81
2024/02/17 03:11:52;;;;;;;16.40;10.60;;;;;;;9.01;81.86;100327.29;130837;1256;108749;-81
2024/02/17 03:15:01;;;;;;;15.30;10.60;;;;;;;9.03;82.03;100326.05;130914;1253;106414;-79
2024/02/17 03:18:08;;;;;;;14.50;10.00;;;;;;;9.05;81.91;100323.77;130853;1253;106360;-81
2024/02/17 03:21:14;;;;;;;15.00;10.90;;;;;;;9.05;81.93;100326.76;130885;1267;107687;-80
2024/02/17 03:24:19;;;;;;;16.70;10.60;;;;;;;9.04;81.96;100327.17;130772;1254;108235;-79
2024/02/17 03:27:25;;;;;;;14.10;9.30;;;;;;;9.02;81.98;100327.89;130891;1256;107689;-79
2024/02/17 03:30:31;;;;;;;11.90;7.80;;;;;;;9.02;82.04;100328.60;130889;1253;107245;-80
2024/02/17 03:33:37;;;;;;;15.50;10.30;;;;;;;9.05;82.23;100326.06;130846;1252;107594;-80
2024/02/17 03:36:43;;;;;;;14.20;9.60;;;;;;;9.11;82.19;100328.40;130875;1256;107582;-80
2024/02/17 03:39:49;;;;;;;16.00;10.60;;;;;;;9.16;81.93;100331.14;130914;1269;107378;-80
2024/02/17 03:42:54;;;;;;;15.00;10.40;;;;;;;9.19;81.93;100334.13;130859;1258;108703;-78
2024/02/17 03:46:00;;;;;;;14.60;10.60;;;;;;;9.21;82.16;100333.81;130858;1257;106712;-79
2024/02/17 03:49:06;;;;;;;16.20;10.80;;;;;;;9.22;82.28;100340.27;130868;1254;107158;-78
2024/02/17 03:52:11;;;;;;;15.40;10.90;;;;;;;9.22;82.38;100342.08;130972;1253;106566;-80
2024/02/17 03:55:17;;;;;;;16.40;9.90;;;;;;;9.21;82.34;100347.30;130856;1256;107879;-80
2024/02/17 03:58:23;;;;;;;13.80;9.10;;;;;;;9.21;82.55;100350.61;130854;1268;106882;-79
2024/02/17 04:01:34;;;;;;;17.10;10.50;;;;;;;9.25;82.48;100353.69;130822;1256;108397;-78
2024/02/17 04:04:40;;;;;;;15.20;10.90;;;;;;;9.32;82.73;100353.05;130933;1253;107807;-79
2024/02/17 04:07:46;;;;;;;15.80;10.80;;;;;;;9.37;82.38;100351.13;130981;1258;109413;-80
2024/02/17 04:10:51;;;;;;;17.10;11.40;;;;;;;9.42;82.53;100357.59;130938;1256;106453;-79
2024/02/17 04:13:57;;;;;;;15.80;11.10;;;;;;;9.45;82.39;100362.13;130960;1256;107778;-79
2024/02/17 04:17:03;;;;;;;16.60;11.60;;;;;;;9.47;82.38;100362.63;130894;1256;108676;-78
2024/02/17 04:20:10;;;;;;;14.00;9.30;;;;;;;9.47;82.49;100369.41;130750;1256;107704;-78
2024/02/17 04:23:16;;;;;;;13.40;9.60;;;;;;;9.47;82.71;100373.52;130864;1256;106704;-79
2024/02/17 04:26:22;;;;;;;14.60;10.20;;;;;;;9.49;82.67;100375.83;130855;1256;108658;-79
2024/02/17 04:29:27;;;;;;;16.50;11.20;;;;;;;9.53;82.67;100375.63;130841;1253;107764;-80
2024/02/17 04:32:33;;;;;;;15.30;10.50;;;;;;;9.58;82.74;100379.19;130875;1253;106855;-81
2024/02/17 04:35:39;;;;;;;14.40;11.00;;;;;;;9.62;82.70;100381.36;130863;1256;108630;-81
2024/02/17 04:38:45;;;;;;;17.70;11.20;;;;;;;9.63;82.67;100380.13;130950;1256;106447;-81
2024/02/17 04:41:50;;;;;;;15.60;11.70;;;;;;;9.64;82.75;100386.27;130911;1253;107145;-80
2024/02/17 04:44:56;;;;;;;16.20;11.50;;;;;;;9.64;82.76;100390.50;130928;1256;106957;-81
2024/02/17 04:48:01;;;;;;;16.00;10.90;;;;;;;9.62;82.88;100388.44;130901;1252;107768;-80
2024/02/17 04:51:07;;;;;;;14.40;9.20;;;;;;;9.61;83.28;100394.77;130915;1257;106371;-79
2024/02/17 04:54:13;;;;;;;15.70;10.30;;;;;;;9.60;83.51;100396.58;130964;1256;108570;-80
2024/02/17 04:57:19;;;;;;;16.60;11.80;;;;;;;9.64;83.79;100397.64;130883;1256;107796;-80
2024/02/17 05:00:24;;;;;;;15.30;11.30;;;;;;;9.69;84.36;100404.14;130877;1256;105580;-80
2024/02/17 05:03:32;;;;;;;17.90;12.40;;;;;;;9.69;85.71;100403.80;130909;1256;108665;-81
2024/02/17 05:06:38;;;;;;;16.10;11.20;;;;;;;9.67;85.53;100402.48;130892;1253;107208;-81
2024/02/17 05:09:44;;;;;;;15.80;9.70;;;;;;;9.66;86.17;100403.02;130905;1254;108660;-80
2024/02/17 05:12:50;;;;;;;40.10;26.10;;;;;;;9.67;86.37;100404.12;130891;1256;107053;-80
2024/02/17 05:15:55;;;;;;;33.00;22.20;;;;;;;9.70;86.37;100407.39;130863;1256;107896;-80
2024/02/17 05:19:01;;;;;;;52.60;31.00;;;;;;;9.73;86.61;100408.38;130881;1257;106834;-79
2024/02/17 05:22:06;;;;;;;33.70;22.40;;;;;;;9.74;86.78;100412.88;130942;1259;107785;-78
2024/02/17 05:25:12;;;;;;;18.50;12.10;;;;;;;9.74;86.91;100419.41;130937;1257;107841;-80
2024/02/17 05:28:18;;;;;;;17.20;10.90;;;;;;;9.73;87.05;100421.33;130920;1257;106572;-81
2024/02/17 05:31:29;;;;;;;16.60;12.00;;;;;;;9.72;87.33;100426.20;130899;1253;107379;-79
2024/02/17 05:34:36;;;;;;;16.50;12.30;;;;;;;9.68;87.94;100423.91;130842;1253;107724;-79
2024/02/17 05:37:42;;;;;;;18.00;13.00;;;;;;;9.68;87.44;100419.98;131010;1257;107678;-79
2024/02/17 05:40:47;;;;;;;21.20;15.40;;;;;;;9.73;87.48;100423.28;130915;1256;105421;-80
2024/02/17 05:43:53;;;;;;;16.80;11.90;;;;;;;9.73;87.65;100426.59;130776;1259;106639;-80
2024/02/17 05:46:59;;;;;;;14.40;9.60;;;;;;;9.72;87.80;100428.19;130884;1253;108654;-78
2024/02/17 05:50:06;;;;;;;15.50;12.40;;;;;;;9.73;88.30;100428.79;130864;1256;107708;-78
2024/02/17 05:53:13;;;;;;;153.70;82.20;;;;;;;9.75;88.56;100431.41;130960;1257;108390;-78
2024/02/17 05:56:18;;;;;;;193.20;88.90;;;;;;;9.74;88.39;100431.13;130943;1253;107737;-78
2024/02/17 05:59:24;;;;;;;80.00;38.90;;;;;;;9.74;88.53;100432.73;130825;1256;106712;-79
2024/02/17 06:02:33;;;;;;;106.10;51.10;;;;;;;9.74;88.70;100434.17;130738;1253;106275;-79
2024/02/17 06:05:38;;;;;;;65.90;38.10;;;;;;;9.73;88.70;100436.55;130803;1256;107770;-79
2024/02/17 06:08:45;;;;;;;63.60;42.60;;;;;;;9.75;88.87;100438.84;130999;1256;108511;-79
2024/02/17 06:11:51;;;;;;;47.60;32.00;;;;;;;9.79;89.20;100442.06;130917;1254;107532;-78
2024/02/17 06:14:57;;;;;;;60.30;39.00;;;;;;;9.84;88.90;100445.34;130927;1256;106695;-79
2024/02/17 06:21:25;;;;;;;25.90;19.10;;;;;;;9.86;89.27;100446.93;131144;1254;107482;-80
2024/02/17 06:24:31;;;;;;;26.80;20.60;;;;;;;9.87;89.16;100453.58;130683;1259;107689;-79
2024/02/17 06:27:37;;;;;;;32.90;25.90;;;;;;;9.90;89.52;100454.76;130661;1254;107875;-81
2024/02/17 06:30:42;;;;;;;41.80;33.70;;;;;;;9.94;89.33;100455.23;130818;1257;106964;-80
2024/02/17 06:33:49;;;;;;;177.20;100.30;;;;;;;9.97;89.62;100459.81;130929;1259;107808;-79
2024/02/17 06:36:55;;;;;;;268.40;126.20;;;;;;;9.99;89.67;100458.31;130766;1259;108652;-80
2024/02/17 06:40:01;;;;;;;566.80;278.60;;;;;;;10.00;89.32;100465.84;130642;1254;106332;-80
2024/02/17 06:43:06;;;;;;;515.70;245.60;;;;;;;10.00;89.69;100470.10;130659;1256;106578;-80
2024/02/17 06:46:12;;;;;;;663.20;365.60;;;;;;;10.01;90.18;100465.25;130603;1256;108557;-78
2024/02/17 06:49:17;;;;;;;570.00;315.30;;;;;;;10.03;90.08;100468.80;130635;1258;106410;-80
2024/02/17 06:52:23;;;;;;;363.20;158.50;;;;;;;10.08;90.11;100476.48;130948;1255;108697;-81
2024/02/17 06:55:29;;;;;;;253.20;105.90;;;;;;;10.10;90.02;100476.48;130731;1259;106815;-80
2024/02/17 06:58:34;;;;;;;406.60;185.00;;;;;;;10.12;89.99;100475.95;130613;1258;108519;-80
2024/02/17 07:01:40;;;;;;;135.20;68.80;;;;;;;10.13;90.50;100485.63;130628;1254;107519;-81
2024/02/17 07:04:45;;;;;;;201.70;117.80;;;;;;;10.17;90.73;100486.20;130840;1254;107658;-79
2024/02/17 07:07:51;;;;;;;194.10;114.30;;;;;;;10.18;90.30;100489.90;130760;1256;108370;-81
2024/02/17 07:10:57;;;;;;;80.20;52.40;;;;;;;10.24;90.89;100488.88;130897;1257;107828;-81
2024/02/17 07:14:03;;;;;;;62.30;43.40;;;;;;;10.28;90.94;100495.63;130884;1257;108692;-80
2024/02/17 07:17:08;;;;;;;28.50;19.80;;;;;;;10.31;91.03;100497.13;130803;1253;108764;-81
2024/02/17 07:20:14;;;;;;;16.70;12.30;;;;;;;10.36;90.96;100499.33;130699;1253;106967;-80
2024/02/17 07:23:20;;;;;;;22.30;16.80;;;;;;;10.41;91.32;100504.90;130722;1259;107855;-80
2024/02/17 07:26:26;;;;;;;35.90;28.20;;;;;;;10.47;91.26;100509.52;130780;1257;107677;-80
2024/02/17 07:29:35;;;;;;;28.40;23.90;;;;;;;10.52;91.72;100515.30;130757;1259;107537;-78
2024/02/17 07:32:41;;;;;;;22.20;16.70;;;;;;;10.55;91.52;100516.05;130914;1253;108478;-80
2024/02/17 07:35:49;;;;;;;21.80;17.10;;;;;;;10.57;91.29;100523.69;130844;1259;107676;-80
2024/02/17 07:38:54;;;;;;;17.10;12.20;;;;;;;10.56;91.47;100524.61;130887;1256;107104;-80
2024/02/17 07:42:00;;;;;;;15.20;11.60;;;;;;;10.60;91.83;100530.48;130889;1259;107950;-80
2024/02/17 07:45:07;;;;;;;16.70;12.10;;;;;;;10.65;91.46;100537.67;130845;1256;107607;-80
2024/02/17 07:48:12;;;;;;;15.90;11.80;;;;;;;10.70;91.88;100540.71;130865;1256;107615;-81
2024/02/17 07:51:18;;;;;;;17.60;13.40;;;;;;;10.74;91.74;100543.73;130868;1253;107499;-79
2024/02/17 07:54:24;;;;;;;24.30;18.60;;;;;;;10.76;91.62;100544.08;130912;1253;109257;-80
2024/02/17 07:57:29;;;;;;;17.80;13.30;;;;;;;10.77;91.63;100549.81;130872;1256;108583;-80
2024/02/17 08:00:35;;;;;;;16.90;13.00;;;;;;;10.80;92.30;100554.19;130874;1256;108683;-80
2024/02/17 08:03:41;;;;;;;16.50;12.40;;;;;;;10.82;92.14;100557.39;130890;1256;106541;-79
2024/02/17 08:06:47;;;;;;;32.20;23.20;;;;;;;10.86;92.40;100557.93;130875;1253;107694;-82
2024/02/17 08:09:52;;;;;;;22.80;16.10;;;;;;;10.87;92.17;100559.58;130950;1254;107285;-78
2024/02/17 08:12:58;;;;;;;15.70;11.30;;;;;;;10.88;92.36;100558.83;130868;1253;106963;-79
2024/02/17 08:16:04;;;;;;;13.50;10.40;;;;;;;10.88;92.22;100568.38;130858;1255;108439;-81
2024/02/17 08:19:10;;;;;;;13.80;10.60;;;;;;;10.91;92.41;100570.94;130840;1256;106924;-79
2024/02/17 08:22:15;;;;;;;14.20;11.00;;;;;;;10.93;92.19;100575.21;130826;1253;107595;-80
2024/02/17 08:25:21;;;;;;;14.60;11.40;;;;;;;10.94;92.52;100572.75;130872;1256;106546;-80
2024/02/17 08:28:27;;;;;;;15.10;12.00;;;;;;;10.95;92.63;100573.64;130926;1256;107854;-79
2024/02/17 08:31:32;;;;;;;13.50;10.00;;;;;;;10.95;92.54;100579.24;130730;1259;107541;-80
2024/02/17 08:34:38;;;;;;;11.70;8.90;;;;;;;10.94;92.83;100586.64;130864;1258;108707;-80
2024/02/17 08:37:44;;;;;;;33.60;22.80;;;;;;;10.95;92.74;100581.08;130862;1259;107548;-81
2024/02/17 08:40:49;;;;;;;135.90;75.20;;;;;;;10.97;93.06;100589.39;130965;1253;108975;-79
2024/02/17 08:43:55;;;;;;;195.30;95.20;;;;;;;10.97;93.09;100585.66;130898;1256;107812;-79
2024/02/17 08:47:00;;;;;;;221.30;98.40;;;;;;;11.00;92.96;100587.74;130858;1259;106546;-79
2024/02/17 08:50:07;;;;;;;286.70;111.70;;;;;;;11.01;93.27;100596.10;130875;1258;106612;-80
2024/02/17 08:53:13;;;;;;;211.00;82.30;;;;;;;11.02;93.37;100597.81;130895;1256;108987;-80
2024/02/17 08:56:18;;;;;;;295.60;110.30;;;;;;;11.06;93.38;100599.94;130890;1256;106471;-80
2024/02/17 08:59:25;;;;;;;729.80;334.20;;;;;;;11.12;93.60;100601.56;130884;1256;108698;-80
2024/02/17 09:02:30;;;;;;;653.30;282.40;;;;;;;11.14;93.39;100599.92;130859;1256;107646;-81
2024/02/17 09:05:37;;;;;;;390.90;139.80;;;;;;;11.18;93.42;100602.02;130909;1256;106323;-79
2024/02/17 09:08:42;;;;;;;795.50;394.70;;;;;;;11.17;93.34;100610.13;130906;1256;107841;-79
2024/02/17 09:11:49;;;;;;;263.50;107.90;;;;;;;11.15;93.57;100619.20;130856;1256;108836;-80
2024/02/17 09:14:54;;;;;;;587.30;300.10;;;;;;;11.13;93.38;100617.65;130880;1258;108782;-80
2024/02/17 09:18:00;;;;;;;384.40;172.30;;;;;;;11.14;93.89;100619.64;130767;1253;106523;-78
2024/02/17 09:21:07;;;;;;;590.40;276.20;;;;;;;11.17;93.96;100620.27;130824;1253;107589;-78
2024/02/17 09:24:18;;;;;;;680.20;350.10;;;;;;;11.19;94.05;100627.12;130890;1256;106718;-80
2024/02/17 09:27:24;;;;;;;577.20;274.10;;;;;;;11.15;93.70;100632.56;130842;1254;107586;-80
2024/02/17 09:30:33;;;;;;;437.70;195.40;;;;;;;11.12;93.97;100639.21;130760;1258;107754;-80
2024/02/17 09:33:39;;;;;;;381.50;170.00;;;;;;;11.13;94.23;100638.78;130795;1253;107320;-80
2024/02/17 09:36:44;;;;;;;237.10;122.10;;;;;;;11.14;94.30;100642.33;130825;1258;107645;-80
2024/02/17 09:39:50;;;;;;;142.90;80.80;;;;;;;11.11;94.27;100637.89;130905;1257;108462;-80
2024/02/17 09:42:56;;;;;;;46.70;29.70;;;;;;;11.12;94.75;100642.84;130876;1254;106887;-79
2024/02/17 09:46:02;;;;;;;84.40;48.60;;;;;;;11.12;94.37;100649.58;130863;1254;107153;-80
2024/02/17 09:49:08;;;;;;;75.40;45.60;;;;;;;11.12;94.47;100653.69;131163;1253;107496;-82
2024/02/17 09:52:15;;;;;;;56.90;35.20;;;;;;;11.14;94.63;100655.40;130829;1259;108355;-82
2024/02/17 09:55:22;;;;;;;85.20;52.00;;;;;;;11.20;94.73;100657.36;130850;1259;108640;-82
2024/02/17 09:58:28;;;;;;;44.80;31.70;;;;;;;11.25;94.62;100656.33;130771;1259;108683;-82
2024/02/17 10:01:33;;;;;;;44.80;35.50;;;;;;;11.29;94.53;100660.23;130799;1253;108641;-83
2024/02/17 10:04:53;;;;;;;26.00;20.60;;;;;;;11.29;94.56;100661.66;131011;1257;108742;-81
2024/02/17 10:07:59;;;;;;;20.90;17.30;;;;;;;11.28;94.84;100665.20;131027;1259;107545;-82
2024/02/17 10:11:06;;;;;;;20.60;17.10;;;;;;;11.26;94.74;100669.23;131008;1257;108636;-82
2024/02/17 10:14:15;;;;;;;15.10;12.00;;;;;;;11.22;94.73;100672.11;130939;1253;106370;-80
2024/02/17 10:17:23;;;;;;;14.80;12.20;;;;;;;11.13;94.78;100675.97;130911;1259;106462;-80
2024/02/17 10:20:29;;;;;;;16.50;13.50;;;;;;;11.07;94.94;100674.84;130960;1253;106701;-81
2024/02/17 10:23:34;;;;;;;14.50;11.40;;;;;;;11.06;94.88;100675.83;130948;1259;107523;-80
2024/02/17 10:26:41;;;;;;;14.70;11.60;;;;;;;11.13;94.85;100673.89;130925;1259;107610;-80
2024/02/17 10:29:47;;;;;;;16.30;13.10;;;;;;;11.20;94.79;100673.22;130901;1258;108407;-80
2024/02/17 10:32:53;;;;;;;15.10;11.70;;;;;;;11.25;95.00;100681.98;130866;1254;108575;-80
2024/02/17 10:35:59;;;;;;;17.20;11.90;;;;;;;11.24;94.60;100684.27;130922;1257;107541;-80
2024/02/17 10:39:07;;;;;;;15.30;12.10;;;;;;;11.35;94.82;100684.97;130998;1256;107837;-82
2024/02/17 10:42:12;;;;;;;13.90;10.20;;;;;;;11.48;94.68;100684.77;130890;1256;106434;-82
2024/02/17 10:45:18;;;;;;;18.80;12.20;;;;;;;11.64;94.55;100687.16;130879;1257;108554;-81
2024/02/17 10:48:27;;;;;;;12.70;10.30;;;;;;;11.69;94.14;100691.67;131094;1254;107638;-80
2024/02/17 10:51:36;;;;;;;15.10;10.80;;;;;;;11.78;94.48;100690.73;131217;1258;107384;-80
2024/02/17 10:54:56;;;;;;;13.40;8.90;;;;;;;11.95;94.63;100689.86;130881;1258;106976;-81
2024/02/17 10:58:10;;;;;;;14.10;9.80;;;;;;;12.07;94.37;100682.04;130594;1258;109495;-81
2024/02/17 11:01:17;;;;;;;16.70;12.70;;;;;;;12.24;94.25;100680.35;130648;1260;108578;-81
2024/02/17 11:04:23;;;;;;;20.40;17.30;;;;;;;12.30;93.97;100677.13;130947;1255;106994;-81
2024/02/17 11:07:29;;;;;;;22.70;12.30;;;;;;;12.26;93.62;100677.86;131014;1254;108595;-81
2024/02/17 11:10:36;;;;;;;19.50;12.10;;;;;;;12.15;93.17;100681.41;130849;1259;108450;-81
2024/02/17 11:13:41;;;;;;;19.40;12.30;;;;;;;12.07;93.15;100683.17;130792;1257;106655;-81
2024/02/17 11:16:47;;;;;;;14.30;10.50;;;;;;;12.03;93.29;100682.84;130889;1256;106257;-81
2024/02/17 11:20:07;;;;;;;14.70;11.60;;;;;;;12.05;93.26;100687.61;130816;1269;108573;-81
2024/02/17 11:23:13;;;;;;;29.70;14.90;;;;;;;12.08;93.20;100689.17;130771;1256;107450;-80
2024/02/17 11:26:20;;;;;;;23.80;13.20;;;;;;;12.05;92.99;100690.34;130716;1258;106870;-81
2024/02/17 11:29:34;;;;;;;22.60;11.60;;;;;;;12.08;93.10;100700.70;130666;1259;107250;-81
2024/02/17 11:32:40;;;;;;;27.80;14.70;;;;;;;12.07;92.88;100703.14;130827;1258;107710;-80
2024/02/17 11:35:48;;;;;;;79.50;44.80;;;;;;;12.03;91.69;100705.34;130869;1267;106285;-81
2024/02/17 11:38:55;;;;;;;25.00;13.10;;;;;;;12.05;92.03;100713.98;130985;1259;107881;-81
2024/02/17 11:42:01;;;;;;;194.40;94.10;;;;;;;12.06;91.93;100714.60;130802;1253;106606;-81
2024/02/17 11:45:08;;;;;;;108.30;54.60;;;;;;;12.12;92.04;100715.52;130784;1262;108572;-81
2024/02/17 11:48:17;;;;;;;34.40;18.10;;;;;;;12.12;91.46;100718.65;131064;1259;106754;-81
2024/02/17 11:51:23;;;;;;;103.10;55.60;;;;;;;12.05;91.46;100721.89;130761;1258;107211;-80
2024/02/17 11:54:30;;;;;;;57.00;31.20;;;;;;;12.03;91.06;100725.63;130852;1259;107717;-80
2024/02/17 11:57:36;;;;;;;119.00;66.80;;;;;;;11.98;90.57;100729.67;130860;1259;107956;-80
2024/02/17 12:00:47;;;;;;;85.00;47.80;;;;;;;11.90;90.16;100739.74;130941;1259;106951;-81
2024/02/17 12:03:53;;;;;;;100.40;56.10;;;;;;;11.76;90.34;100739.09;130930;1257;108661;-81
2024/02/17 12:06:58;;;;;;;129.20;74.80;;;;;;;11.68;90.30;100740.91;130920;1257;108567;-80
2024/02/17 12:10:04;;;;;;;47.10;26.90;;;;;;;11.68;90.64;100743.24;130931;1267;107640;-80
2024/02/17 12:13:10;;;;;;;19.10;9.50;;;;;;;11.77;90.32;100746.85;130830;1270;107075;-80
2024/02/17 12:16:16;;;;;;;12.20;7.00;;;;;;;11.77;89.23;100746.63;130863;1254;106545;-79
2024/02/17 12:19:25;;;;;;;23.30;9.50;;;;;;;11.74;89.95;100747.42;130795;1253;107730;-80
2024/02/17 12:22:31;;;;;;;18.90;10.50;;;;;;;11.76;89.15;100749.39;130816;1259;107696;-80
2024/02/17 12:25:38;;;;;;;17.50;10.00;;;;;;;11.77;89.36;100747.20;130842;1259;108439;-79
2024/02/17 12:28:44;;;;;;;16.60;8.00;;;;;;;11.76;88.70;100748.35;130729;1259;106579;-80
2024/02/17 12:31:51;;;;;;;10.10;6.00;;;;;;;11.76;89.05;100747.15;130828;1259;106729;-79
2024/02/17 12:35:11;;;;;;;10.20;5.80;;;;;;;11.87;89.07;100747.71;130724;1258;106894;-80
2024/02/17 12:38:19;;;;;;;13.00;6.90;;;;;;;11.94;88.55;100746.42;130596;1258;108522;-79
2024/02/17 12:41:25;;;;;;;11.70;6.30;;;;;;;12.05;88.66;100748.11;130800;1253;105596;-80
2024/02/17 12:44:31;;;;;;;12.10;7.60;;;;;;;12.17;88.75;100748.84;130794;1259;108483;-79
2024/02/17 12:47:36;;;;;;;12.40;6.20;;;;;;;12.24;87.77;100748.38;130798;1259;108655;-79
2024/02/17 12:50:43;;;;;;;12.60;6.50;;;;;;;12.22;87.65;100747.83;130787;1267;106934;-80
2024/02/17 12:53:49;;;;;;;12.50;6.30;;;;;;;12.20;87.72;100741.05;130897;1254;107651;-80
2024/02/17 12:56:54;;;;;;;6.20;4.20;;;;;;;12.15;87.07;100749.70;130778;1259;107073;-80
2024/02/17 13:00:00;;;;;;;12.20;6.20;;;;;;;12.15;87.42;100755.80;130860;1257;107307;-81
2024/02/17 13:03:07;;;;;;;10.90;7.10;;;;;;;12.14;86.87;100754.67;130853;1253;108245;-80
2024/02/17 13:06:14;;;;;;;12.60;6.80;;;;;;;12.16;87.20;100755.92;130853;1259;106595;-80
2024/02/17 13:09:19;;;;;;;11.30;6.80;;;;;;;12.13;86.44;100763.89;130939;1264;106704;-79
2024/02/17 13:12:25;;;;;;;11.30;7.70;;;;;;;12.08;86.95;100772.16;130905;1259;107795;-79
2024/02/17 13:15:31;;;;;;;8.90;6.80;;;;;;;11.97;86.24;100772.77;130901;1259;107778;-80
2024/02/17 13:18:37;;;;;;;59.30;42.50;;;;;;;11.81;86.85;100777.09;130874;1264;107975;-81
2024/02/17 13:21:42;;;;;;;198.60;100.90;;;;;;;11.70;87.13;100781.73;130909;1266;108678;-79
2024/02/17 13:24:49;;;;;;;46.30;26.00;;;;;;;11.57;87.06;100788.48;130965;1259;107822;-80
2024/02/17 13:27:54;;;;;;;201.00;92.40;;;;;;;11.40;87.74;100784.20;130663;1259;232920;-81
2024/02/17 13:31:00;;;;;;;355.70;182.30;;;;;;;11.35;88.40;100787.01;130797;1258;107712;-79
2024/02/17 13:34:06;;;;;;;169.40;77.50;;;;;;;11.38;88.07;100793.83;130693;1259;108166;-78
2024/02/17 13:37:11;;;;;;;55.00;26.20;;;;;;;11.36;88.06;100797.02;130723;1257;108684;-79
2024/02/17 13:40:19;;;;;;;23.90;15.00;;;;;;;11.35;88.22;100795.92;131029;1259;107892;-83
2024/02/17 13:43:25;;;;;;;29.80;15.10;;;;;;;11.32;87.58;100796.74;130858;1253;107706;-83
2024/02/17 13:46:30;;;;;;;52.60;30.20;;;;;;;11.30;87.48;100798.55;130984;1257;107506;-86
2024/02/17 13:49:36;;;;;;;34.80;25.30;;;;;;;11.33;87.23;100805.38;131286;1257;107700;-86
2024/02/17 13:52:42;;;;;;;21.40;15.10;;;;;;;11.31;86.99;100802.30;131174;1253;108425;-79
2024/02/17 13:55:47;;;;;;;22.20;18.10;;;;;;;11.31;86.61;100804.98;130648;1259;107407;-78